Time,TemperatureF,DewpointF,PressureIn,WindDirection,WindDirectionDegrees,WindSpeedMPH,WindSpeedGustMPH,Humidity,HourlyPrecipIn,Conditions,Clouds,dailyrainin,SoftwareType,DateUTC
2013-03-29 00:00:00,54.1,45.3,30.25,NNE,15,0.0,0.0,72,0.00,,,0.00,meteohub,2013-03-29 04:00:00,
2013-03-29 00:02:00,54.1,45.0,30.25,NNE,15,0.0,0.0,71,0.00,,,0.00,meteohub,2013-03-29 04:02:00,
2013-03-29 00:07:00,54.1,45.0,30.25,NNE,15,0.0,0.0,71,0.00,,,0.00,meteohub,2013-03-29 04:07:00,
2013-03-29 00:12:00,54.0,45.1,30.25,NNE,15,0.0,0.0,72,0.00,,,0.00,meteohub,2013-03-29 04:12:00,
2013-03-29 00:17:00,53.8,45.3,30.25,NNE,15,0.0,0.0,73,0.00,,,0.00,meteohub,2013-03-29 04:17:00,
2013-03-29 00:22:00,53.6,45.1,30.25,NNE,15,0.0,0.0,73,0.00,,,0.00,meteohub,2013-03-29 04:22:00,
2013-03-29 00:27:00,53.4,45.3,30.25,NNE,15,0.0,0.0,74,0.00,,,0.00,meteohub,2013-03-29 04:27:00,
2013-03-29 00:32:00,53.4,45.7,30.25,NNE,15,0.0,0.0,75,0.00,,,0.00,meteohub,2013-03-29 04:32:00,
2013-03-29 00:37:00,53.2,45.1,30.25,NNE,15,0.0,0.0,74,0.00,,,0.00,meteohub,2013-03-29 04:37:00,
2013-03-29 00:42:00,53.2,45.5,30.25,NNE,15,0.0,0.0,75,0.00,,,0.00,meteohub,2013-03-29 04:42:00,
2013-03-29 00:47:00,53.1,45.3,30.25,NNE,15,0.0,0.0,75,0.00,,,0.00,meteohub,2013-03-29 04:47:00,
2013-03-29 00:52:00,53.2,45.5,30.25,NNE,15,0.0,0.0,75,0.00,,,0.00,meteohub,2013-03-29 04:52:00,
2013-03-29 00:57:00,53.2,45.5,30.25,NNE,15,0.0,0.0,75,0.00,,,0.00,meteohub,2013-03-29 04:57:00,
2013-03-29 01:02:00,53.2,45.5,30.25,NNE,15,0.0,0.0,75,0.00,,,0.00,meteohub,2013-03-29 05:02:00,
2013-03-29 01:07:00,53.2,45.5,30.25,NNE,15,0.0,0.0,75,0.00,,,0.00,meteohub,2013-03-29 05:07:00,
2013-03-29 01:12:00,53.4,46.0,30.25,NNE,15,0.0,0.0,76,0.00,,,0.00,meteohub,2013-03-29 05:12:00,
2013-03-29 01:17:00,53.6,45.9,30.24,NNE,15,0.0,0.0,75,0.00,,,0.00,meteohub,2013-03-29 05:17:00,
2013-03-29 01:23:00,53.8,46.0,30.25,NNE,15,0.0,0.0,75,0.00,,,0.00,meteohub,2013-03-29 05:23:00,
2013-03-29 01:28:00,53.6,45.9,30.24,NNE,15,0.0,0.0,75,0.00,,,0.00,meteohub,2013-03-29 05:28:00,
2013-03-29 01:33:00,53.6,46.2,30.24,NNE,15,0.0,0.0,76,0.00,,,0.00,meteohub,2013-03-29 05:33:00,
2013-03-29 01:38:00,53.8,46.4,30.24,NNE,15,0.0,0.0,76,0.00,,,0.00,meteohub,2013-03-29 05:38:00,
2013-03-29 01:43:00,53.8,46.4,30.24,NNE,15,0.0,0.0,76,0.00,,,0.00,meteohub,2013-03-29 05:43:00,
2013-03-29 01:48:00,53.8,46.0,30.24,NNE,15,0.0,0.0,75,0.00,,,0.00,meteohub,2013-03-29 05:48:00,
2013-03-29 01:53:00,53.8,46.0,30.24,NNE,15,0.0,0.0,75,0.00,,,0.00,meteohub,2013-03-29 05:53:00,
2013-03-29 01:58:00,53.8,46.0,30.24,NNE,15,0.0,0.0,75,0.00,,,0.00,meteohub,2013-03-29 05:58:00,
2013-03-29 02:03:00,53.6,45.9,30.24,NNE,15,0.0,0.0,75,0.00,,,0.00,meteohub,2013-03-29 06:03:00,
2013-03-29 02:08:00,53.4,46.0,30.24,NNE,15,0.0,0.0,76,0.00,,,0.00,meteohub,2013-03-29 06:08:00,
2013-03-29 02:13:00,53.4,46.0,30.24,NNE,15,0.0,0.0,76,0.00,,,0.00,meteohub,2013-03-29 06:13:00,
2013-03-29 02:18:00,53.4,46.0,30.23,NNE,15,0.0,0.0,76,0.00,,,0.00,meteohub,2013-03-29 06:18:00,
2013-03-29 02:23:00,53.4,46.0,30.24,NNE,15,0.0,0.0,76,0.00,,,0.00,meteohub,2013-03-29 06:23:00,
2013-03-29 02:28:00,53.4,46.0,30.24,NNE,15,0.0,0.0,76,0.00,,,0.00,meteohub,2013-03-29 06:28:00,
2013-03-29 02:33:00,53.4,46.0,30.24,NNE,15,0.0,0.0,76,0.00,,,0.00,meteohub,2013-03-29 06:33:00,
2013-03-29 02:38:00,53.6,46.2,30.23,NNE,15,0.0,0.0,76,0.00,,,0.00,meteohub,2013-03-29 06:38:00,
2013-03-29 02:43:00,53.8,46.0,30.23,NNE,15,0.0,0.0,75,0.00,,,0.00,meteohub,2013-03-29 06:43:00,
2013-03-29 02:48:00,54.0,46.2,30.23,NNE,15,0.0,0.0,75,0.00,,,0.00,meteohub,2013-03-29 06:48:00,
2013-03-29 02:53:00,54.0,46.2,30.23,NNE,15,0.0,0.0,75,0.00,,,0.00,meteohub,2013-03-29 06:53:00,
2013-03-29 02:58:00,54.0,46.2,30.23,NNE,15,0.0,0.0,75,0.00,,,0.00,meteohub,2013-03-29 06:58:00,
2013-03-29 03:03:00,54.1,46.4,30.23,NNE,15,0.0,0.0,75,0.00,,,0.00,meteohub,2013-03-29 07:03:00,
2013-03-29 03:08:00,54.1,46.4,30.23,NNE,15,0.0,0.0,75,0.00,,,0.00,meteohub,2013-03-29 07:08:00,
2013-03-29 03:13:00,54.1,46.4,30.23,NNE,15,0.0,0.0,75,0.00,,,0.00,meteohub,2013-03-29 07:13:00,
2013-03-29 03:18:00,54.0,46.6,30.22,NNE,15,0.0,0.0,76,0.00,,,0.00,meteohub,2013-03-29 07:18:00,
2013-03-29 03:23:00,54.0,46.6,30.22,NNE,15,0.0,0.0,76,0.00,,,0.00,meteohub,2013-03-29 07:23:00,
2013-03-29 03:28:00,54.0,46.6,30.22,NNE,15,0.0,0.0,76,0.00,,,0.00,meteohub,2013-03-29 07:28:00,
2013-03-29 03:33:00,54.0,46.6,30.22,NNE,15,0.0,1.0,76,0.00,,,0.00,meteohub,2013-03-29 07:33:00,
2013-03-29 03:38:00,54.0,46.6,30.22,NNE,13,0.0,2.0,76,0.00,,,0.00,meteohub,2013-03-29 07:38:00,
2013-03-29 03:43:00,54.1,46.8,30.22,NNE,13,0.0,2.0,76,0.00,,,0.00,meteohub,2013-03-29 07:43:00,
2013-03-29 03:48:00,54.1,46.8,30.22,NNE,13,0.0,2.0,76,0.00,,,0.00,meteohub,2013-03-29 07:48:00,
2013-03-29 03:53:00,54.1,46.8,30.22,NNE,13,0.0,0.0,76,0.00,,,0.00,meteohub,2013-03-29 07:53:00,
2013-03-29 03:58:00,54.1,46.8,30.22,NNE,13,0.0,0.0,76,0.00,,,0.00,meteohub,2013-03-29 07:58:00,
2013-03-29 04:03:00,54.0,46.6,30.22,NNE,13,0.0,0.0,76,0.00,,,0.00,meteohub,2013-03-29 08:03:00,
2013-03-29 04:08:00,54.0,46.6,30.22,NNE,13,0.0,0.0,76,0.00,,,0.00,meteohub,2013-03-29 08:08:00,
2013-03-29 04:13:00,54.0,46.9,30.22,NNE,13,0.0,0.0,77,0.00,,,0.00,meteohub,2013-03-29 08:13:00,
2013-03-29 04:18:00,54.0,46.6,30.21,NNE,13,0.0,0.0,76,0.00,,,0.00,meteohub,2013-03-29 08:18:00,
2013-03-29 04:23:00,53.8,46.4,30.22,NNE,13,0.0,0.0,76,0.00,,,0.00,meteohub,2013-03-29 08:23:00,
2013-03-29 04:28:00,53.8,46.8,30.22,NNE,13,0.0,0.0,77,0.00,,,0.00,meteohub,2013-03-29 08:28:00,
2013-03-29 04:33:00,53.6,46.6,30.22,NNE,13,0.0,0.0,77,0.00,,,0.00,meteohub,2013-03-29 08:33:00,
2013-03-29 04:38:00,53.4,46.4,30.22,NNE,13,0.0,0.0,77,0.00,,,0.00,meteohub,2013-03-29 08:38:00,
2013-03-29 04:43:00,53.4,46.4,30.22,NNE,13,0.0,0.0,77,0.00,,,0.00,meteohub,2013-03-29 08:43:00,
2013-03-29 04:48:00,53.4,46.8,30.21,NNE,13,0.0,0.0,78,0.00,,,0.00,meteohub,2013-03-29 08:48:00,
2013-03-29 04:53:00,53.4,46.8,30.22,NNE,13,0.0,0.0,78,0.00,,,0.00,meteohub,2013-03-29 08:53:00,
2013-03-29 04:58:00,53.4,46.8,30.21,NNE,13,0.0,0.0,78,0.00,,,0.00,meteohub,2013-03-29 08:58:00,
2013-03-29 05:04:00,53.4,46.8,30.21,NNE,13,0.0,0.0,78,0.00,,,0.00,meteohub,2013-03-29 09:04:00,
2013-03-29 05:08:00,53.4,46.8,30.22,North,5,0.0,0.0,78,0.00,,,0.00,meteohub,2013-03-29 09:08:00,
2013-03-29 05:14:00,53.2,46.6,30.22,North,5,0.0,1.0,78,0.00,,,0.00,meteohub,2013-03-29 09:14:00,
2013-03-29 05:19:00,53.4,47.1,30.22,North,5,0.0,1.0,79,0.00,,,0.00,meteohub,2013-03-29 09:19:00,
2013-03-29 05:24:00,53.6,48.2,30.22,North,5,0.0,1.0,82,0.00,,,0.00,meteohub,2013-03-29 09:24:00,
2013-03-29 05:29:00,54.0,48.2,30.22,North,5,0.0,0.0,81,0.00,,,0.00,meteohub,2013-03-29 09:29:00,
2013-03-29 05:33:00,54.0,47.3,30.22,North,5,0.0,0.0,78,0.00,,,0.00,meteohub,2013-03-29 09:33:00,
2013-03-29 05:39:00,54.0,48.0,30.22,North,5,0.0,0.0,80,0.00,,,0.00,meteohub,2013-03-29 09:39:00,
2013-03-29 05:44:00,54.0,48.0,30.22,North,5,0.0,0.0,80,0.00,,,0.00,meteohub,2013-03-29 09:44:00,
2013-03-29 05:49:00,53.8,47.5,30.22,North,5,0.0,0.0,79,0.00,,,0.00,meteohub,2013-03-29 09:49:00,
2013-03-29 05:54:00,53.8,47.1,30.22,North,5,0.0,1.0,78,0.00,,,0.00,meteohub,2013-03-29 09:54:00,
2013-03-29 05:59:00,53.6,46.9,30.22,North,5,0.0,1.0,78,0.00,,,0.00,meteohub,2013-03-29 09:59:00,
2013-03-29 06:04:00,53.6,46.9,30.22,North,5,0.0,1.0,78,0.00,,,0.00,meteohub,2013-03-29 10:04:00,
2013-03-29 06:09:00,53.4,46.8,30.23,North,5,0.0,0.0,78,0.00,,,0.00,meteohub,2013-03-29 10:09:00,
2013-03-29 06:14:00,53.6,46.9,30.23,North,5,0.0,0.0,78,0.00,,,0.00,meteohub,2013-03-29 10:14:00,
2013-03-29 06:19:00,53.6,46.9,30.23,North,5,0.0,1.0,78,0.00,,,0.00,meteohub,2013-03-29 10:19:00,
2013-03-29 06:24:00,53.6,46.6,30.23,North,5,0.0,1.0,77,0.00,,,0.00,meteohub,2013-03-29 10:24:00,
2013-03-29 06:29:00,53.6,46.9,30.24,North,5,0.0,1.0,78,0.00,,,0.00,meteohub,2013-03-29 10:29:00,
2013-03-29 06:34:00,53.6,46.9,30.24,North,5,0.0,0.0,78,0.00,,,0.00,meteohub,2013-03-29 10:34:00,
2013-03-29 06:39:00,53.4,46.8,30.24,North,5,0.0,0.0,78,0.00,,,0.00,meteohub,2013-03-29 10:39:00,
2013-03-29 06:44:00,53.4,46.8,30.24,North,5,0.0,0.0,78,0.00,,,0.00,meteohub,2013-03-29 10:44:00,
2013-03-29 06:49:00,53.4,47.1,30.24,North,5,0.0,0.0,79,0.00,,,0.00,meteohub,2013-03-29 10:49:00,
2013-03-29 06:54:00,53.4,48.0,30.24,North,5,0.0,0.0,82,0.00,,,0.00,meteohub,2013-03-29 10:54:00,
2013-03-29 06:59:00,53.6,47.7,30.24,North,5,0.0,0.0,80,0.00,,,0.00,meteohub,2013-03-29 10:59:00,
2013-03-29 07:04:00,53.4,47.1,30.24,North,5,0.0,0.0,79,0.00,,,0.00,meteohub,2013-03-29 11:04:00,
2013-03-29 07:09:00,53.4,47.7,30.24,North,5,0.0,0.0,81,0.00,,,0.00,meteohub,2013-03-29 11:09:00,
2013-03-29 07:14:00,53.4,47.5,30.24,North,5,0.0,0.0,80,0.00,,,0.00,meteohub,2013-03-29 11:14:00,
2013-03-29 07:19:00,53.4,47.5,30.24,North,5,0.0,1.0,80,0.00,,,0.00,meteohub,2013-03-29 11:19:00,
2013-03-29 07:24:00,53.4,47.5,30.25,North,5,0.0,1.0,80,0.00,,,0.00,meteohub,2013-03-29 11:24:00,
2013-03-29 07:29:00,53.4,47.5,30.25,North,5,0.0,1.0,80,0.00,,,0.00,meteohub,2013-03-29 11:29:00,
2013-03-29 07:34:00,53.4,47.1,30.25,North,5,0.0,0.0,79,0.00,,,0.00,meteohub,2013-03-29 11:34:00,
2013-03-29 07:39:00,53.6,47.7,30.25,North,5,0.0,0.0,80,0.00,,,0.00,meteohub,2013-03-29 11:39:00,
2013-03-29 07:44:00,53.8,47.5,30.25,North,0,0.0,0.0,79,0.00,,,0.00,meteohub,2013-03-29 11:44:00,
2013-03-29 07:49:00,53.8,47.5,30.25,North,0,0.0,2.0,79,0.00,,,0.00,meteohub,2013-03-29 11:49:00,
2013-03-29 07:54:00,54.0,47.7,30.26,North,0,0.0,2.0,79,0.00,,,0.00,meteohub,2013-03-29 11:54:00,
2013-03-29 07:59:00,54.1,47.5,30.26,North,0,0.0,2.0,78,0.00,,,0.00,meteohub,2013-03-29 11:59:00,
2013-03-29 08:04:00,54.3,47.7,30.26,North,0,0.0,1.0,78,0.00,,,0.00,meteohub,2013-03-29 12:04:00,
2013-03-29 08:09:00,54.7,48.0,30.26,North,5,0.0,1.0,78,0.00,,,0.00,meteohub,2013-03-29 12:09:00,
2013-03-29 08:14:00,55.0,48.4,30.26,NNE,13,0.0,3.0,78,0.00,,,0.00,meteohub,2013-03-29 12:14:00,
2013-03-29 08:19:00,55.2,48.2,30.26,North,0,4.0,4.0,77,0.00,,,0.00,meteohub,2013-03-29 12:19:00,
2013-03-29 08:24:00,55.9,48.6,30.26,NNW,347,0.0,4.0,76,0.00,,,0.00,meteohub,2013-03-29 12:24:00,
2013-03-29 08:29:00,56.5,48.7,30.27,NNW,348,0.0,4.0,75,0.00,,,0.00,meteohub,2013-03-29 12:29:00,
2013-03-29 08:34:00,57.0,48.7,30.27,NNE,20,0.0,4.0,74,0.00,,,0.00,meteohub,2013-03-29 12:34:00,
2013-03-29 08:39:00,57.7,49.1,30.27,North,355,0.0,3.0,73,0.00,,,0.00,meteohub,2013-03-29 12:39:00,
2013-03-29 08:44:00,58.8,49.5,30.27,North,355,4.0,4.0,71,0.00,,,0.00,meteohub,2013-03-29 12:44:00,
2013-03-29 08:49:00,59.9,50.2,30.27,NNE,22,1.0,5.0,70,0.00,,,0.00,meteohub,2013-03-29 12:49:00,
2013-03-29 08:54:00,61.0,50.4,30.27,NNE,28,1.0,5.0,68,0.00,,,0.00,meteohub,2013-03-29 12:54:00,
2013-03-29 08:59:00,61.9,50.7,30.27,North,5,0.0,5.0,67,0.00,,,0.00,meteohub,2013-03-29 12:59:00,
2013-03-29 09:04:00,62.8,50.4,30.27,NNW,346,0.0,4.0,64,0.00,,,0.00,meteohub,2013-03-29 13:04:00,
2013-03-29 09:09:00,63.7,50.4,30.27,NW,325,0.0,3.0,62,0.00,,,0.00,meteohub,2013-03-29 13:09:00,
2013-03-29 09:14:00,64.4,50.2,30.27,North,5,2.0,4.0,60,0.00,,,0.00,meteohub,2013-03-29 13:14:00,
2013-03-29 09:19:00,64.9,50.2,30.28,NNW,338,0.0,5.0,59,0.00,,,0.00,meteohub,2013-03-29 13:19:00,
2013-03-29 09:24:00,65.7,50.5,30.28,NNE,12,1.0,5.0,58,0.00,,,0.00,meteohub,2013-03-29 13:24:00,
2013-03-29 09:29:00,66.4,50.7,30.28,North,5,2.0,5.0,57,0.00,,,0.00,meteohub,2013-03-29 13:29:00,
2013-03-29 09:34:00,66.7,50.0,30.28,North,11,1.0,5.0,55,0.00,,,0.00,meteohub,2013-03-29 13:34:00,
2013-03-29 09:39:00,67.3,51.1,30.28,North,5,4.0,5.0,56,0.00,,,0.00,meteohub,2013-03-29 13:39:00,
2013-03-29 09:44:00,67.6,50.4,30.28,NNE,26,4.0,5.0,54,0.00,,,0.00,meteohub,2013-03-29 13:44:00,
2013-03-29 09:49:00,68.4,51.6,30.28,NNW,346,0.0,5.0,55,0.00,,,0.00,meteohub,2013-03-29 13:49:00,
2013-03-29 09:54:00,69.1,52.2,30.28,NNW,342,0.0,5.0,55,0.00,,,0.00,meteohub,2013-03-29 13:54:00,
2013-03-29 09:59:00,69.4,52.2,30.28,NNW,330,2.0,5.0,54,0.00,,,0.00,meteohub,2013-03-29 13:59:00,
2013-03-29 10:05:00,69.6,50.7,30.28,NNE,29,0.0,6.0,51,0.00,,,0.00,meteohub,2013-03-29 14:05:00,
2013-03-29 10:10:00,70.0,51.1,30.28,NNE,13,0.0,7.0,51,0.00,,,0.00,meteohub,2013-03-29 14:10:00,
2013-03-29 10:15:00,70.3,51.4,30.28,NNW,331,0.0,7.0,51,0.00,,,0.00,meteohub,2013-03-29 14:15:00,
2013-03-29 10:20:00,70.9,51.3,30.29,NNE,22,2.0,7.0,50,0.00,,,0.00,meteohub,2013-03-29 14:20:00,
2013-03-29 10:25:00,71.4,51.3,30.29,North,350,1.0,7.0,49,0.00,,,0.00,meteohub,2013-03-29 14:25:00,
2013-03-29 10:30:00,72.0,51.3,30.29,North,355,0.0,7.0,48,0.00,,,0.00,meteohub,2013-03-29 14:30:00,
2013-03-29 10:35:00,71.6,50.4,30.29,NNE,14,5.0,7.0,47,0.00,,,0.00,meteohub,2013-03-29 14:35:00,
2013-03-29 10:40:00,71.8,51.6,30.29,NE,34,2.0,11.0,49,0.00,,,0.00,meteohub,2013-03-29 14:40:00,
2013-03-29 10:45:00,72.1,50.7,30.29,NNW,338,3.0,11.0,47,0.00,,,0.00,meteohub,2013-03-29 14:45:00,
2013-03-29 10:50:00,72.1,50.2,30.29,NNW,329,5.0,11.0,46,0.00,,,0.00,meteohub,2013-03-29 14:50:00,
2013-03-29 10:55:00,72.3,49.8,30.29,NE,53,2.0,10.0,45,0.00,,,0.00,meteohub,2013-03-29 14:55:00,
2013-03-29 11:00:00,72.9,51.4,30.29,NE,44,2.0,10.0,47,0.00,,,0.00,meteohub,2013-03-29 15:00:00,
2013-03-29 11:05:00,72.7,51.8,30.29,NE,38,0.0,10.0,48,0.00,,,0.00,meteohub,2013-03-29 15:05:00,
2013-03-29 11:10:00,72.5,51.6,30.29,NE,53,2.0,9.0,48,0.00,,,0.00,meteohub,2013-03-29 15:10:00,
2013-03-29 11:15:00,72.1,51.4,30.29,NNW,348,0.0,10.0,48,0.00,,,0.00,meteohub,2013-03-29 15:15:00,
2013-03-29 11:20:00,72.5,52.3,30.29,NE,44,2.0,10.0,49,0.00,,,0.00,meteohub,2013-03-29 15:20:00,
2013-03-29 11:25:00,72.7,52.3,30.29,NNE,28,1.0,10.0,49,0.00,,,0.00,meteohub,2013-03-29 15:25:00,
2013-03-29 11:30:00,73.0,52.2,30.29,NE,42,3.0,9.0,48,0.00,,,0.00,meteohub,2013-03-29 15:30:00,
2013-03-29 11:35:00,73.4,51.4,30.29,NNE,32,1.0,9.0,46,0.00,,,0.00,meteohub,2013-03-29 15:35:00,
2013-03-29 11:40:00,73.8,51.1,30.29,NNW,345,3.0,10.0,45,0.00,,,0.00,meteohub,2013-03-29 15:40:00,
2013-03-29 11:45:00,73.9,51.8,30.29,ENE,57,7.0,10.0,46,0.00,,,0.00,meteohub,2013-03-29 15:45:00,
2013-03-29 11:50:00,74.7,52.5,30.29,NE,40,0.0,10.0,46,0.00,,,0.00,meteohub,2013-03-29 15:50:00,
2013-03-29 11:55:00,74.8,53.2,30.29,NE,44,1.0,7.0,47,0.00,,,0.00,meteohub,2013-03-29 15:55:00,
2013-03-29 12:00:00,74.5,52.3,30.29,SE,136,3.0,10.0,46,0.00,,,0.00,meteohub,2013-03-29 16:00:00,
2013-03-29 12:05:00,74.7,52.0,30.28,East,91,1.0,10.0,45,0.00,,,0.00,meteohub,2013-03-29 16:05:00,
2013-03-29 12:10:00,75.0,51.6,30.28,NNW,331,2.0,10.0,44,0.00,,,0.00,meteohub,2013-03-29 16:10:00,
2013-03-29 12:15:00,75.0,52.2,30.28,NNE,30,6.0,8.0,45,0.00,,,0.00,meteohub,2013-03-29 16:15:00,
2013-03-29 12:20:00,75.4,52.5,30.28,ESE,117,3.0,8.0,45,0.00,,,0.00,meteohub,2013-03-29 16:20:00,
2013-03-29 12:25:00,75.0,52.9,30.28,North,351,4.0,8.0,46,0.00,,,0.00,meteohub,2013-03-29 16:25:00,
2013-03-29 12:30:00,74.5,51.8,30.28,NNW,328,2.0,9.0,45,0.00,,,0.00,meteohub,2013-03-29 16:30:00,
2013-03-29 12:35:00,74.1,52.0,30.27,NNE,26,3.0,9.0,46,0.00,,,0.00,meteohub,2013-03-29 16:35:00,
2013-03-29 12:40:00,74.5,52.3,30.27,ESE,121,2.0,9.0,46,0.00,,,0.00,meteohub,2013-03-29 16:40:00,
2013-03-29 12:45:00,74.5,52.3,30.27,NNE,24,3.0,10.0,46,0.00,,,0.00,meteohub,2013-03-29 16:45:00,
2013-03-29 12:50:00,74.3,52.7,30.27,East,90,3.0,10.0,47,0.00,,,0.00,meteohub,2013-03-29 16:50:00,
2013-03-29 12:55:00,74.1,52.5,30.27,East,88,0.0,10.0,47,0.00,,,0.00,meteohub,2013-03-29 16:55:00,
2013-03-29 13:01:00,74.5,52.3,30.27,North,0,4.0,11.0,46,0.00,,,0.00,meteohub,2013-03-29 17:01:00,
2013-03-29 13:06:00,74.8,52.2,30.26,NNW,329,2.0,11.0,45,0.00,,,0.00,meteohub,2013-03-29 17:06:00,
2013-03-29 13:11:00,75.0,52.9,30.26,NE,41,4.0,11.0,46,0.00,,,0.00,meteohub,2013-03-29 17:11:00,
2013-03-29 13:16:00,73.9,51.8,30.26,NNE,32,7.0,10.0,46,0.00,,,0.00,meteohub,2013-03-29 17:16:00,
2013-03-29 13:21:00,73.6,52.2,30.26,ENE,77,3.0,11.0,47,0.00,,,0.00,meteohub,2013-03-29 17:21:00,
2013-03-29 13:26:00,74.1,52.5,30.26,ESE,122,1.0,11.0,47,0.00,,,0.00,meteohub,2013-03-29 17:26:00,
2013-03-29 13:31:00,73.9,51.8,30.26,NE,56,1.0,11.0,46,0.00,,,0.00,meteohub,2013-03-29 17:31:00,
2013-03-29 13:36:00,73.6,52.2,30.26,North,0,3.0,9.0,47,0.00,,,0.00,meteohub,2013-03-29 17:36:00,
2013-03-29 13:41:00,73.0,51.1,30.25,NE,54,0.0,8.0,46,0.00,,,0.00,meteohub,2013-03-29 17:41:00,
2013-03-29 13:46:00,73.2,51.3,30.25,NNE,33,3.0,8.0,46,0.00,,,0.00,meteohub,2013-03-29 17:46:00,
2013-03-29 13:51:00,73.8,51.6,30.25,East,93,2.0,10.0,46,0.00,,,0.00,meteohub,2013-03-29 17:51:00,
2013-03-29 13:56:00,74.7,52.0,30.25,NNE,23,2.0,10.0,45,0.00,,,0.00,meteohub,2013-03-29 17:56:00,
2013-03-29 14:01:00,75.0,52.2,30.25,ESE,112,4.0,10.0,45,0.00,,,0.00,meteohub,2013-03-29 18:01:00,
2013-03-29 14:07:00,74.7,52.0,30.25,NNW,346,5.0,10.0,45,0.00,,,0.00,meteohub,2013-03-29 18:07:00,
2013-03-29 14:12:00,74.3,52.2,30.24,ENE,67,4.0,10.0,46,0.00,,,0.00,meteohub,2013-03-29 18:12:00,
2013-03-29 14:17:00,74.8,52.7,30.24,North,0,0.0,10.0,46,0.00,,,0.00,meteohub,2013-03-29 18:17:00,
2013-03-29 14:22:00,75.4,52.0,30.24,NNE,16,4.0,10.0,44,0.00,,,0.00,meteohub,2013-03-29 18:22:00,
2013-03-29 14:27:00,75.4,52.0,30.24,North,9,1.0,10.0,44,0.00,,,0.00,meteohub,2013-03-29 18:27:00,
2013-03-29 14:32:00,75.6,52.2,30.24,ENE,78,2.0,10.0,44,0.00,,,0.00,meteohub,2013-03-29 18:32:00,
2013-03-29 14:37:00,75.0,51.6,30.24,ESE,123,2.0,9.0,44,0.00,,,0.00,meteohub,2013-03-29 18:37:00,
2013-03-29 14:42:00,74.5,51.8,30.23,SE,140,1.0,10.0,45,0.00,,,0.00,meteohub,2013-03-29 18:42:00,
2013-03-29 14:47:00,74.7,52.0,30.23,NNE,26,1.0,10.0,45,0.00,,,0.00,meteohub,2013-03-29 18:47:00,
2013-03-29 14:52:00,75.0,52.2,30.23,NNE,13,3.0,10.0,45,0.00,,,0.00,meteohub,2013-03-29 18:52:00,
2013-03-29 14:57:00,74.7,51.3,30.23,East,79,1.0,9.0,44,0.00,,,0.00,meteohub,2013-03-29 18:57:00,
2013-03-29 15:02:00,74.8,52.2,30.23,NE,50,3.0,9.0,45,0.00,,,0.00,meteohub,2013-03-29 19:02:00,
2013-03-29 15:07:00,74.8,51.4,30.22,East,88,2.0,8.0,44,0.00,,,0.00,meteohub,2013-03-29 19:07:00,
2013-03-29 15:12:00,74.1,50.2,30.22,NE,41,0.0,8.0,43,0.00,,,0.00,meteohub,2013-03-29 19:12:00,
2013-03-29 15:17:00,74.5,51.8,30.22,ENE,67,3.0,8.0,45,0.00,,,0.00,meteohub,2013-03-29 19:17:00,
2013-03-29 15:22:00,74.7,52.0,30.22,NNE,15,7.0,8.0,45,0.00,,,0.00,meteohub,2013-03-29 19:22:00,
2013-03-29 15:27:00,74.3,52.2,30.22,NNE,15,2.0,8.0,46,0.00,,,0.00,meteohub,2013-03-29 19:27:00,
2013-03-29 15:32:00,73.9,51.3,30.22,NNE,17,0.0,8.0,45,0.00,,,0.00,meteohub,2013-03-29 19:32:00,
2013-03-29 15:37:00,73.8,51.1,30.22,NNE,24,5.0,8.0,45,0.00,,,0.00,meteohub,2013-03-29 19:37:00,
2013-03-29 15:42:00,73.8,51.6,30.22,North,0,0.0,7.0,46,0.00,,,0.00,meteohub,2013-03-29 19:42:00,
2013-03-29 15:47:00,74.3,52.2,30.22,SE,146,2.0,8.0,46,0.00,,,0.00,meteohub,2013-03-29 19:47:00,
2013-03-29 15:52:00,74.1,51.4,30.22,ENE,77,3.0,9.0,45,0.00,,,0.00,meteohub,2013-03-29 19:52:00,
2013-03-29 15:57:00,73.4,50.7,30.21,NNE,21,3.0,9.0,45,0.00,,,0.00,meteohub,2013-03-29 19:57:00,
2013-03-29 16:02:00,73.6,50.4,30.21,NE,38,4.0,9.0,44,0.00,,,0.00,meteohub,2013-03-29 20:02:00,
2013-03-29 16:07:00,73.6,49.6,30.21,East,85,3.0,9.0,43,0.00,,,0.00,meteohub,2013-03-29 20:07:00,
2013-03-29 16:12:00,72.7,50.2,30.21,ESE,117,1.0,7.0,45,0.00,,,0.00,meteohub,2013-03-29 20:12:00,
2013-03-29 16:17:00,72.0,50.7,30.21,East,92,6.0,8.0,47,0.00,,,0.00,meteohub,2013-03-29 20:17:00,
2013-03-29 16:22:00,71.8,51.6,30.21,NE,40,3.0,8.0,49,0.00,,,0.00,meteohub,2013-03-29 20:22:00,
2013-03-29 16:27:00,72.1,51.4,30.21,North,355,3.0,8.0,48,0.00,,,0.00,meteohub,2013-03-29 20:27:00,
2013-03-29 16:33:00,73.2,50.5,30.21,North,355,0.0,9.0,45,0.00,,,0.00,meteohub,2013-03-29 20:33:00,
2013-03-29 16:38:00,73.2,51.3,30.21,ESE,103,2.0,9.0,46,0.00,,,0.00,meteohub,2013-03-29 20:38:00,
2013-03-29 16:43:00,73.0,53.2,30.21,NNE,23,1.0,9.0,50,0.00,,,0.00,meteohub,2013-03-29 20:43:00,
2013-03-29 16:48:00,73.2,52.9,30.22,NE,55,1.0,7.0,49,0.00,,,0.00,meteohub,2013-03-29 20:48:00,
2013-03-29 16:53:00,73.0,52.7,30.22,NE,42,1.0,8.0,49,0.00,,,0.00,meteohub,2013-03-29 20:53:00,
2013-03-29 16:58:00,71.8,52.2,30.22,East,94,2.0,8.0,50,0.00,,,0.00,meteohub,2013-03-29 20:58:00,
2013-03-29 17:03:00,71.2,52.7,30.22,East,84,1.0,8.0,52,0.00,,,0.00,meteohub,2013-03-29 21:03:00,
2013-03-29 17:08:00,71.1,53.1,30.22,East,98,0.0,6.0,53,0.00,,,0.00,meteohub,2013-03-29 21:08:00,
2013-03-29 17:13:00,70.5,52.5,30.22,ENE,78,0.0,6.0,53,0.00,,,0.00,meteohub,2013-03-29 21:13:00,
2013-03-29 17:18:00,70.3,52.9,30.22,NE,34,0.0,6.0,54,0.00,,,0.00,meteohub,2013-03-29 21:18:00,
2013-03-29 17:23:00,70.3,53.4,30.22,NNE,31,5.0,6.0,55,0.00,,,0.00,meteohub,2013-03-29 21:23:00,
2013-03-29 17:28:00,70.9,53.4,30.22,NE,55,0.0,6.0,54,0.00,,,0.00,meteohub,2013-03-29 21:28:00,
2013-03-29 17:33:00,71.4,54.0,30.22,ESE,120,0.0,6.0,54,0.00,,,0.00,meteohub,2013-03-29 21:33:00,
2013-03-29 17:38:00,71.6,54.1,30.22,ENE,73,0.0,8.0,54,0.00,,,0.00,meteohub,2013-03-29 21:38:00,
2013-03-29 17:43:00,71.4,54.0,30.22,SSE,149,1.0,8.0,54,0.00,,,0.00,meteohub,2013-03-29 21:43:00,
2013-03-29 17:48:00,71.1,54.1,30.22,East,87,0.0,8.0,55,0.00,,,0.00,meteohub,2013-03-29 21:48:00,
2013-03-29 17:53:00,70.7,54.3,30.22,ENE,59,0.0,7.0,56,0.00,,,0.00,meteohub,2013-03-29 21:53:00,
2013-03-29 17:58:00,70.5,54.1,30.22,SE,134,3.0,8.0,56,0.00,,,0.00,meteohub,2013-03-29 21:58:00,
2013-03-29 18:03:00,70.3,53.4,30.22,East,81,6.0,8.0,55,0.00,,,0.00,meteohub,2013-03-29 22:03:00,
2013-03-29 18:08:00,70.3,54.0,30.22,East,94,2.0,8.0,56,0.00,,,0.00,meteohub,2013-03-29 22:08:00,
2013-03-29 18:13:00,70.3,53.4,30.22,ESE,123,4.0,6.0,55,0.00,,,0.00,meteohub,2013-03-29 22:13:00,
2013-03-29 18:18:00,70.2,54.1,30.22,WNW,302,0.0,6.0,57,0.00,,,0.00,meteohub,2013-03-29 22:18:00,
2013-03-29 18:23:00,69.8,53.4,30.22,NE,43,1.0,5.0,56,0.00,,,0.00,meteohub,2013-03-29 22:23:00,
2013-03-29 18:28:00,69.4,53.6,30.22,ENE,76,0.0,5.0,57,0.00,,,0.00,meteohub,2013-03-29 22:28:00,
2013-03-29 18:33:00,69.4,53.1,30.22,ESE,108,0.0,5.0,56,0.00,,,0.00,meteohub,2013-03-29 22:33:00,
2013-03-29 18:38:00,69.3,52.9,30.22,East,98,0.0,7.0,56,0.00,,,0.00,meteohub,2013-03-29 22:38:00,
2013-03-29 18:43:00,69.1,52.7,30.22,NE,54,1.0,7.0,56,0.00,,,0.00,meteohub,2013-03-29 22:43:00,
2013-03-29 18:49:00,69.1,52.2,30.22,ENE,73,0.0,7.0,55,0.00,,,0.00,meteohub,2013-03-29 22:49:00,
2013-03-29 18:54:00,68.7,52.9,30.21,NNE,19,1.0,4.0,57,0.00,,,0.00,meteohub,2013-03-29 22:54:00,
2013-03-29 18:59:00,68.7,52.9,30.21,East,82,0.0,5.0,57,0.00,,,0.00,meteohub,2013-03-29 22:59:00,
2013-03-29 19:04:00,68.5,52.7,30.21,ESE,104,0.0,5.0,57,0.00,,,0.00,meteohub,2013-03-29 23:04:00,
2013-03-29 19:09:00,68.4,52.5,30.21,ENE,71,0.0,6.0,57,0.00,,,0.00,meteohub,2013-03-29 23:09:00,
2013-03-29 19:14:00,68.2,52.9,30.21,East,92,2.0,6.0,58,0.00,,,0.00,meteohub,2013-03-29 23:14:00,
2013-03-29 19:19:00,67.8,52.9,30.22,ENE,57,0.0,6.0,59,0.00,,,0.00,meteohub,2013-03-29 23:19:00,
2013-03-29 19:24:00,67.6,52.9,30.22,East,99,2.0,6.0,59,0.00,,,0.00,meteohub,2013-03-29 23:24:00,
2013-03-29 19:29:00,67.5,52.7,30.21,East,92,0.0,6.0,59,0.00,,,0.00,meteohub,2013-03-29 23:29:00,
2013-03-29 19:34:00,67.3,52.5,30.22,ENE,71,0.0,6.0,59,0.00,,,0.00,meteohub,2013-03-29 23:34:00,
2013-03-29 19:39:00,66.9,52.5,30.22,ENE,67,2.0,6.0,60,0.00,,,0.00,meteohub,2013-03-29 23:39:00,
2013-03-29 19:44:00,66.7,52.3,30.22,East,89,1.0,4.0,60,0.00,,,0.00,meteohub,2013-03-29 23:44:00,
2013-03-29 19:49:00,66.6,52.7,30.22,NNE,33,1.0,4.0,61,0.00,,,0.00,meteohub,2013-03-29 23:49:00,
2013-03-29 19:54:00,66.4,52.5,30.22,East,87,0.0,4.0,61,0.00,,,0.00,meteohub,2013-03-29 23:54:00,
2013-03-29 19:59:00,66.2,52.9,30.22,East,96,0.0,7.0,62,0.00,,,0.00,meteohub,2013-03-29 23:59:00,
2013-03-29 20:04:00,65.8,52.5,30.22,East,93,0.0,7.0,62,0.00,,,0.00,meteohub,2013-03-30 00:04:00,
2013-03-29 20:09:00,65.7,52.3,30.22,ENE,65,1.0,7.0,62,0.00,,,0.00,meteohub,2013-03-30 00:09:00,
2013-03-29 20:14:00,65.3,52.0,30.22,NE,42,0.0,3.0,62,0.00,,,0.00,meteohub,2013-03-30 00:14:00,
2013-03-29 20:19:00,65.1,51.8,30.22,ENE,62,0.0,4.0,62,0.00,,,0.00,meteohub,2013-03-30 00:19:00,
2013-03-29 20:24:00,64.9,52.0,30.22,East,94,0.0,4.0,63,0.00,,,0.00,meteohub,2013-03-30 00:24:00,
2013-03-29 20:29:00,64.9,52.0,30.22,East,90,0.0,4.0,63,0.00,,,0.00,meteohub,2013-03-30 00:29:00,
2013-03-29 20:34:00,64.9,52.5,30.23,ENE,74,0.0,3.0,64,0.00,,,0.00,meteohub,2013-03-30 00:34:00,
2013-03-29 20:39:00,64.8,52.3,30.23,East,88,0.0,3.0,64,0.00,,,0.00,meteohub,2013-03-30 00:39:00,
2013-03-29 20:44:00,64.8,52.3,30.23,NE,51,0.0,2.0,64,0.00,,,0.00,meteohub,2013-03-30 00:44:00,
2013-03-29 20:49:00,64.8,51.8,30.23,NE,51,0.0,3.0,63,0.00,,,0.00,meteohub,2013-03-30 00:49:00,
2013-03-29 20:54:00,64.6,51.6,30.23,ENE,75,0.0,3.0,63,0.00,,,0.00,meteohub,2013-03-30 00:54:00,
2013-03-29 20:59:00,64.6,51.6,30.23,ENE,71,0.0,3.0,63,0.00,,,0.00,meteohub,2013-03-30 00:59:00,
2013-03-29 21:04:00,64.6,51.6,30.24,East,93,0.0,3.0,63,0.00,,,0.00,meteohub,2013-03-30 01:04:00,
2013-03-29 21:09:00,64.6,52.2,30.24,SE,130,0.0,3.0,64,0.00,,,0.00,meteohub,2013-03-30 01:09:00,
2013-03-29 21:14:00,64.8,52.3,30.24,East,91,0.0,3.0,64,0.00,,,0.00,meteohub,2013-03-30 01:14:00,
2013-03-29 21:19:00,64.8,52.3,30.24,ESE,110,0.0,3.0,64,0.00,,,0.00,meteohub,2013-03-30 01:19:00,
2013-03-29 21:24:00,64.6,52.2,30.24,NNE,28,0.0,3.0,64,0.00,,,0.00,meteohub,2013-03-30 01:24:00,
2013-03-29 21:29:00,64.4,52.0,30.24,NNE,32,0.0,3.0,64,0.00,,,0.00,meteohub,2013-03-30 01:29:00,
2013-03-29 21:34:00,64.2,51.8,30.24,ENE,73,0.0,3.0,64,0.00,,,0.00,meteohub,2013-03-30 01:34:00,
2013-03-29 21:39:00,64.2,51.8,30.24,East,99,0.0,3.0,64,0.00,,,0.00,meteohub,2013-03-30 01:39:00,
2013-03-29 21:44:00,64.2,51.8,30.24,ESE,104,0.0,3.0,64,0.00,,,0.00,meteohub,2013-03-30 01:44:00,
2013-03-29 21:49:00,64.2,51.4,30.24,SE,126,0.0,3.0,63,0.00,,,0.00,meteohub,2013-03-30 01:49:00,
2013-03-29 21:54:00,64.2,51.4,30.24,East,84,0.0,3.0,63,0.00,,,0.00,meteohub,2013-03-30 01:54:00,
2013-03-29 21:59:00,64.2,51.8,30.25,NE,49,0.0,3.0,64,0.00,,,0.00,meteohub,2013-03-30 01:59:00,
2013-03-29 22:04:00,64.2,51.8,30.25,East,80,0.0,3.0,64,0.00,,,0.00,meteohub,2013-03-30 02:04:00,
2013-03-29 22:09:00,64.2,51.8,30.25,East,81,0.0,2.0,64,0.00,,,0.00,meteohub,2013-03-30 02:09:00,
2013-03-29 22:14:00,64.4,52.3,30.25,ENE,67,0.0,2.0,65,0.00,,,0.00,meteohub,2013-03-30 02:14:00,
2013-03-29 22:19:00,64.6,52.2,30.25,ENE,59,0.0,2.0,64,0.00,,,0.00,meteohub,2013-03-30 02:19:00,
2013-03-29 22:24:00,64.8,52.3,30.25,East,80,0.0,5.0,64,0.00,,,0.00,meteohub,2013-03-30 02:24:00,
2013-03-29 22:29:00,64.8,51.8,30.25,NNE,17,1.0,5.0,63,0.00,,,0.00,meteohub,2013-03-30 02:29:00,
2013-03-29 22:34:00,64.9,52.0,30.25,SSE,165,0.0,5.0,63,0.00,,,0.00,meteohub,2013-03-30 02:34:00,
2013-03-29 22:39:00,64.9,52.0,30.25,NE,44,0.0,4.0,63,0.00,,,0.00,meteohub,2013-03-30 02:39:00,
2013-03-29 22:44:00,64.9,52.0,30.25,ESE,114,0.0,5.0,63,0.00,,,0.00,meteohub,2013-03-30 02:44:00,
2013-03-29 22:49:00,64.9,52.0,30.25,NE,42,0.0,5.0,63,0.00,,,0.00,meteohub,2013-03-30 02:49:00,
2013-03-29 22:54:00,64.9,51.6,30.25,East,80,0.0,5.0,62,0.00,,,0.00,meteohub,2013-03-30 02:54:00,
2013-03-29 22:59:00,64.8,51.8,30.25,East,80,0.0,3.0,63,0.00,,,0.00,meteohub,2013-03-30 02:59:00,
2013-03-29 23:04:00,64.6,51.6,30.25,NE,42,0.0,1.0,63,0.00,,,0.00,meteohub,2013-03-30 03:04:00,
2013-03-29 23:10:00,64.6,51.6,30.25,ESE,116,0.0,1.0,63,0.00,,,0.00,meteohub,2013-03-30 03:10:00,
2013-03-29 23:15:00,64.6,51.6,30.25,East,94,0.0,3.0,63,0.00,,,0.00,meteohub,2013-03-30 03:15:00,
2013-03-29 23:20:00,64.8,51.8,30.25,NE,53,0.0,3.0,63,0.00,,,0.00,meteohub,2013-03-30 03:20:00,
2013-03-29 23:25:00,64.8,51.8,30.25,ESE,118,0.0,3.0,63,0.00,,,0.00,meteohub,2013-03-30 03:25:00,
2013-03-29 23:30:00,64.8,51.8,30.25,NE,54,0.0,3.0,63,0.00,,,0.00,meteohub,2013-03-30 03:30:00,
2013-03-29 23:35:00,64.8,51.8,30.25,NE,51,0.0,3.0,63,0.00,,,0.00,meteohub,2013-03-30 03:35:00,
2013-03-29 23:40:00,64.6,52.2,30.25,SSE,167,0.0,2.0,64,0.00,,,0.00,meteohub,2013-03-30 03:40:00,
2013-03-29 23:45:00,64.6,52.2,30.25,East,92,0.0,2.0,64,0.00,,,0.00,meteohub,2013-03-30 03:45:00,
2013-03-29 23:50:00,64.8,52.3,30.25,ESE,117,0.0,3.0,64,0.00,,,0.00,meteohub,2013-03-30 03:50:00,
2013-03-29 23:55:00,64.8,52.7,30.25,SE,126,0.0,3.0,65,0.00,,,0.00,meteohub,2013-03-30 03:55:00,